sensor_id;sensor_type;location;lat;lon;timestamp;P1;durP1;ratioP1;P2;durP2;ratioP2
66739;SDS011;53653;52.188;8.602;2024-02-28T00:01:29;54.65;;;21.80;;
66739;SDS011;53653;52.188;8.602;2024-02-28T00:03:55;60.90;;;23.57;;
66739;SDS011;53653;52.188;8.602;2024-02-28T00:06:20;54.53;;;21.67;;
66739;SDS011;53653;52.188;8.602;2024-02-28T00:08:45;57.87;;;22.60;;
66739;SDS011;53653;52.188;8.602;2024-02-28T00:11:11;55.15;;;21.83;;
66739;SDS011;53653;52.188;8.602;2024-02-28T00:13:37;58.30;;;22.30;;
66739;SDS011;53653;52.188;8.602;2024-02-28T00:16:02;64.37;;;23.00;;
66739;SDS011;53653;52.188;8.602;2024-02-28T00:18:28;59.55;;;22.70;;
66739;SDS011;53653;52.188;8.602;2024-02-28T00:20:55;57.95;;;22.10;;
66739;SDS011;53653;52.188;8.602;2024-02-28T00:23:20;65.87;;;22.97;;
66739;SDS011;53653;52.188;8.602;2024-02-28T00:25:46;62.60;;;22.73;;
66739;SDS011;53653;52.188;8.602;2024-02-28T00:28:11;64.90;;;23.83;;
66739;SDS011;53653;52.188;8.602;2024-02-28T00:30:37;59.67;;;21.90;;
66739;SDS011;53653;52.188;8.602;2024-02-28T00:33:02;56.13;;;21.43;;
66739;SDS011;53653;52.188;8.602;2024-02-28T00:35:28;58.13;;;22.13;;
66739;SDS011;53653;52.188;8.602;2024-02-28T00:37:58;57.58;;;21.95;;
66739;SDS011;53653;52.188;8.602;2024-02-28T00:40:23;61.90;;;23.13;;
66739;SDS011;53653;52.188;8.602;2024-02-28T00:42:50;56.33;;;22.35;;
66739;SDS011;53653;52.188;8.602;2024-02-28T00:45:16;59.87;;;23.93;;
66739;SDS011;53653;52.188;8.602;2024-02-28T00:47:41;55.63;;;23.00;;
66739;SDS011;53653;52.188;8.602;2024-02-28T00:50:07;56.37;;;22.03;;
66739;SDS011;53653;52.188;8.602;2024-02-28T00:52:33;59.20;;;22.40;;
66739;SDS011;53653;52.188;8.602;2024-02-28T00:54:58;56.93;;;21.73;;
66739;SDS011;53653;52.188;8.602;2024-02-28T00:57:24;57.25;;;22.30;;
66739;SDS011;53653;52.188;8.602;2024-02-28T00:59:50;57.30;;;23.80;;
66739;SDS011;53653;52.188;8.602;2024-02-28T01:02:15;57.83;;;21.55;;
66739;SDS011;53653;52.188;8.602;2024-02-28T01:04:41;54.57;;;20.90;;
66739;SDS011;53653;52.188;8.602;2024-02-28T01:07:06;61.67;;;20.73;;
66739;SDS011;53653;52.188;8.602;2024-02-28T01:09:32;57.47;;;21.48;;
66739;SDS011;53653;52.188;8.602;2024-02-28T01:11:57;60.33;;;22.20;;
66739;SDS011;53653;52.188;8.602;2024-02-28T01:14:23;58.20;;;21.33;;
66739;SDS011;53653;52.188;8.602;2024-02-28T01:16:48;58.03;;;21.53;;
66739;SDS011;53653;52.188;8.602;2024-02-28T01:19:15;63.83;;;22.30;;
66739;SDS011;53653;52.188;8.602;2024-02-28T01:21:41;130.25;;;26.13;;
66739;SDS011;53653;52.188;8.602;2024-02-28T01:24:06;80.87;;;25.10;;
66739;SDS011;53653;52.188;8.602;2024-02-28T01:26:32;88.43;;;25.07;;
66739;SDS011;53653;52.188;8.602;2024-02-28T01:28:57;77.20;;;24.85;;
66739;SDS011;53653;52.188;8.602;2024-02-28T01:31:22;59.17;;;22.80;;
66739;SDS011;53653;52.188;8.602;2024-02-28T01:33:48;67.10;;;23.77;;
66739;SDS011;53653;52.188;8.602;2024-02-28T01:36:13;71.80;;;24.17;;
66739;SDS011;53653;52.188;8.602;2024-02-28T01:38:39;72.97;;;26.20;;
66739;SDS011;53653;52.188;8.602;2024-02-28T01:41:04;60.83;;;22.83;;
66739;SDS011;53653;52.188;8.602;2024-02-28T01:43:30;62.83;;;21.92;;
66739;SDS011;53653;52.188;8.602;2024-02-28T01:45:57;60.23;;;21.97;;
66739;SDS011;53653;52.188;8.602;2024-02-28T01:48:26;57.05;;;22.52;;
66739;SDS011;53653;52.188;8.602;2024-02-28T01:50:51;63.63;;;24.17;;
66739;SDS011;53653;52.188;8.602;2024-02-28T01:53:17;62.05;;;22.67;;
66739;SDS011;53653;52.188;8.602;2024-02-28T01:55:43;61.80;;;23.67;;
66739;SDS011;53653;52.188;8.602;2024-02-28T01:58:08;64.60;;;23.60;;
66739;SDS011;53653;52.188;8.602;2024-02-28T02:00:34;67.30;;;24.38;;
66739;SDS011;53653;52.188;8.602;2024-02-28T02:03:02;53.87;;;20.37;;
66739;SDS011;53653;52.188;8.602;2024-02-28T02:05:28;56.65;;;20.58;;
66739;SDS011;53653;52.188;8.602;2024-02-28T02:07:54;58.20;;;21.60;;
66739;SDS011;53653;52.188;8.602;2024-02-28T02:10:20;50.87;;;19.73;;
66739;SDS011;53653;52.188;8.602;2024-02-28T02:12:45;58.90;;;21.23;;
66739;SDS011;53653;52.188;8.602;2024-02-28T02:15:11;55.10;;;21.90;;
66739;SDS011;53653;52.188;8.602;2024-02-28T02:17:36;55.30;;;21.17;;
66739;SDS011;53653;52.188;8.602;2024-02-28T02:20:02;55.93;;;20.00;;
66739;SDS011;53653;52.188;8.602;2024-02-28T02:22:31;51.90;;;20.00;;
66739;SDS011;53653;52.188;8.602;2024-02-28T02:24:59;50.92;;;19.38;;
66739;SDS011;53653;52.188;8.602;2024-02-28T02:27:27;46.15;;;18.77;;
66739;SDS011;53653;52.188;8.602;2024-02-28T02:29:53;53.80;;;19.03;;
66739;SDS011;53653;52.188;8.602;2024-02-28T02:32:18;51.93;;;20.67;;
66739;SDS011;53653;52.188;8.602;2024-02-28T02:34:43;50.43;;;18.90;;
66739;SDS011;53653;52.188;8.602;2024-02-28T02:37:09;52.30;;;20.47;;
66739;SDS011;53653;52.188;8.602;2024-02-28T02:39:34;51.88;;;19.48;;
66739;SDS011;53653;52.188;8.602;2024-02-28T02:42:00;47.50;;;18.70;;
66739;SDS011;53653;52.188;8.602;2024-02-28T02:44:25;58.00;;;19.53;;
66739;SDS011;53653;52.188;8.602;2024-02-28T02:46:50;50.10;;;19.13;;
66739;SDS011;53653;52.188;8.602;2024-02-28T02:49:16;52.03;;;20.52;;
66739;SDS011;53653;52.188;8.602;2024-02-28T02:51:43;50.53;;;20.13;;
66739;SDS011;53653;52.188;8.602;2024-02-28T02:54:09;54.92;;;20.88;;
66739;SDS011;53653;52.188;8.602;2024-02-28T02:56:34;54.73;;;20.83;;
66739;SDS011;53653;52.188;8.602;2024-02-28T02:59:00;58.53;;;20.00;;
66739;SDS011;53653;52.188;8.602;2024-02-28T03:01:25;53.27;;;19.87;;
66739;SDS011;53653;52.188;8.602;2024-02-28T03:03:51;58.00;;;20.80;;
66739;SDS011;53653;52.188;8.602;2024-02-28T03:06:17;53.90;;;22.23;;
66739;SDS011;53653;52.188;8.602;2024-02-28T03:08:43;49.65;;;18.70;;
66739;SDS011;53653;52.188;8.602;2024-02-28T03:11:08;53.00;;;20.03;;
66739;SDS011;53653;52.188;8.602;2024-02-28T03:13:34;48.37;;;19.57;;
66739;SDS011;53653;52.188;8.602;2024-02-28T03:15:59;57.63;;;19.83;;
66739;SDS011;53653;52.188;8.602;2024-02-28T03:18:25;53.80;;;20.60;;
66739;SDS011;53653;52.188;8.602;2024-02-28T03:20:50;55.27;;;19.77;;
66739;SDS011;53653;52.188;8.602;2024-02-28T03:23:15;57.45;;;20.35;;
66739;SDS011;53653;52.188;8.602;2024-02-28T03:25:41;56.73;;;22.10;;
66739;SDS011;53653;52.188;8.602;2024-02-28T03:28:06;53.70;;;20.03;;
66739;SDS011;53653;52.188;8.602;2024-02-28T03:30:32;50.70;;;19.73;;
66739;SDS011;53653;52.188;8.602;2024-02-28T03:32:57;52.27;;;19.13;;
66739;SDS011;53653;52.188;8.602;2024-02-28T03:35:22;57.78;;;21.08;;
66739;SDS011;53653;52.188;8.602;2024-02-28T03:37:48;51.87;;;20.97;;
66739;SDS011;53653;52.188;8.602;2024-02-28T03:40:13;52.33;;;19.83;;
66739;SDS011;53653;52.188;8.602;2024-02-28T03:42:40;52.47;;;20.98;;
66739;SDS011;53653;52.188;8.602;2024-02-28T03:45:05;47.33;;;19.53;;
66739;SDS011;53653;52.188;8.602;2024-02-28T03:47:31;55.33;;;20.30;;
66739;SDS011;53653;52.188;8.602;2024-02-28T03:49:56;52.07;;;19.93;;
66739;SDS011;53653;52.188;8.602;2024-02-28T03:52:22;49.17;;;20.00;;
66739;SDS011;53653;52.188;8.602;2024-02-28T03:54:48;44.70;;;18.50;;
66739;SDS011;53653;52.188;8.602;2024-02-28T03:57:14;49.17;;;20.05;;
66739;SDS011;53653;52.188;8.602;2024-02-28T03:59:40;46.97;;;19.33;;
66739;SDS011;53653;52.188;8.602;2024-02-28T04:02:09;51.53;;;19.08;;
66739;SDS011;53653;52.188;8.602;2024-02-28T04:04:34;49.40;;;19.80;;
66739;SDS011;53653;52.188;8.602;2024-02-28T04:07:00;48.33;;;19.10;;
66739;SDS011;53653;52.188;8.602;2024-02-28T04:09:25;47.47;;;18.47;;
66739;SDS011;53653;52.188;8.602;2024-02-28T04:11:51;43.93;;;18.67;;
66739;SDS011;53653;52.188;8.602;2024-02-28T04:14:16;45.70;;;18.75;;
66739;SDS011;53653;52.188;8.602;2024-02-28T04:16:42;41.60;;;16.77;;
66739;SDS011;53653;52.188;8.602;2024-02-28T04:19:12;47.30;;;19.20;;
66739;SDS011;53653;52.188;8.602;2024-02-28T04:21:37;46.00;;;18.20;;
66739;SDS011;53653;52.188;8.602;2024-02-28T04:24:04;48.42;;;18.80;;
66739;SDS011;53653;52.188;8.602;2024-02-28T04:26:31;45.40;;;18.85;;
66739;SDS011;53653;52.188;8.602;2024-02-28T04:28:56;46.27;;;17.93;;
66739;SDS011;53653;52.188;8.602;2024-02-28T04:31:22;52.90;;;20.43;;
66739;SDS011;53653;52.188;8.602;2024-02-28T04:33:47;51.87;;;21.07;;
66739;SDS011;53653;52.188;8.602;2024-02-28T04:36:12;48.22;;;18.90;;
66739;SDS011;53653;52.188;8.602;2024-02-28T04:38:38;48.03;;;19.10;;
66739;SDS011;53653;52.188;8.602;2024-02-28T04:41:03;53.60;;;19.73;;
66739;SDS011;53653;52.188;8.602;2024-02-28T04:43:29;47.70;;;18.77;;
66739;SDS011;53653;52.188;8.602;2024-02-28T04:45:54;50.38;;;20.45;;
66739;SDS011;53653;52.188;8.602;2024-02-28T04:48:19;50.63;;;18.90;;
66739;SDS011;53653;52.188;8.602;2024-02-28T04:50:45;44.50;;;18.30;;
66739;SDS011;53653;52.188;8.602;2024-02-28T04:53:11;44.35;;;17.63;;
66739;SDS011;53653;52.188;8.602;2024-02-28T04:55:36;42.63;;;17.07;;
66739;SDS011;53653;52.188;8.602;2024-02-28T04:58:01;46.53;;;19.27;;
66739;SDS011;53653;52.188;8.602;2024-02-28T05:00:27;51.57;;;21.57;;
66739;SDS011;53653;52.188;8.602;2024-02-28T05:02:52;51.93;;;22.87;;
66739;SDS011;53653;52.188;8.602;2024-02-28T05:05:18;55.53;;;23.30;;
66739;SDS011;53653;52.188;8.602;2024-02-28T05:07:43;59.93;;;27.10;;
66739;SDS011;53653;52.188;8.602;2024-02-28T05:10:08;65.43;;;28.03;;
66739;SDS011;53653;52.188;8.602;2024-02-28T05:12:34;61.63;;;27.33;;
66739;SDS011;53653;52.188;8.602;2024-02-28T05:14:59;51.70;;;20.83;;
66739;SDS011;53653;52.188;8.602;2024-02-28T05:17:25;48.47;;;20.20;;
66739;SDS011;53653;52.188;8.602;2024-02-28T05:19:50;56.43;;;21.13;;
66739;SDS011;53653;52.188;8.602;2024-02-28T05:22:16;52.40;;;20.40;;
66739;SDS011;53653;52.188;8.602;2024-02-28T05:24:41;48.25;;;18.13;;
66739;SDS011;53653;52.188;8.602;2024-02-28T05:27:08;41.73;;;17.10;;
66739;SDS011;53653;52.188;8.602;2024-02-28T05:29:34;47.88;;;19.70;;
66739;SDS011;53653;52.188;8.602;2024-02-28T05:31:59;48.90;;;18.43;;
66739;SDS011;53653;52.188;8.602;2024-02-28T05:34:25;51.90;;;19.58;;
66739;SDS011;53653;52.188;8.602;2024-02-28T05:36:50;53.50;;;19.53;;
66739;SDS011;53653;52.188;8.602;2024-02-28T05:39:16;53.90;;;20.77;;
66739;SDS011;53653;52.188;8.602;2024-02-28T05:41:41;59.90;;;21.20;;
66739;SDS011;53653;52.188;8.602;2024-02-28T05:44:06;53.30;;;19.80;;
66739;SDS011;53653;52.188;8.602;2024-02-28T05:46:32;49.57;;;19.83;;
66739;SDS011;53653;52.188;8.602;2024-02-28T05:48:57;60.40;;;22.70;;
66739;SDS011;53653;52.188;8.602;2024-02-28T05:51:23;51.83;;;19.33;;
66739;SDS011;53653;52.188;8.602;2024-02-28T05:53:48;53.33;;;19.43;;
66739;SDS011;53653;52.188;8.602;2024-02-28T05:56:14;59.30;;;20.85;;
66739;SDS011;53653;52.188;8.602;2024-02-28T05:58:41;56.90;;;20.85;;
66739;SDS011;53653;52.188;8.602;2024-02-28T06:01:08;61.35;;;21.55;;
66739;SDS011;53653;52.188;8.602;2024-02-28T06:03:35;60.87;;;20.90;;
66739;SDS011;53653;52.188;8.602;2024-02-28T06:06:00;59.58;;;21.05;;
66739;SDS011;53653;52.188;8.602;2024-02-28T06:08:26;58.70;;;21.00;;
66739;SDS011;53653;52.188;8.602;2024-02-28T06:10:51;60.77;;;19.80;;
66739;SDS011;53653;52.188;8.602;2024-02-28T06:13:17;63.53;;;22.90;;
66739;SDS011;53653;52.188;8.602;2024-02-28T06:15:43;62.33;;;21.00;;
66739;SDS011;53653;52.188;8.602;2024-02-28T06:18:09;56.90;;;21.63;;
66739;SDS011;53653;52.188;8.602;2024-02-28T06:20:34;70.53;;;21.20;;
66739;SDS011;53653;52.188;8.602;2024-02-28T06:23:00;76.22;;;24.48;;
66739;SDS011;53653;52.188;8.602;2024-02-28T06:25:25;66.30;;;23.57;;
66739;SDS011;53653;52.188;8.602;2024-02-28T06:27:52;69.80;;;23.15;;
66739;SDS011;53653;52.188;8.602;2024-02-28T06:30:18;77.50;;;25.07;;
66739;SDS011;53653;52.188;8.602;2024-02-28T06:32:44;67.50;;;24.10;;
66739;SDS011;53653;52.188;8.602;2024-02-28T06:35:09;74.27;;;23.63;;
66739;SDS011;53653;52.188;8.602;2024-02-28T06:37:35;74.17;;;22.93;;
66739;SDS011;53653;52.188;8.602;2024-02-28T06:40:02;74.50;;;23.50;;
66739;SDS011;53653;52.188;8.602;2024-02-28T06:42:29;68.65;;;23.00;;
66739;SDS011;53653;52.188;8.602;2024-02-28T06:44:55;76.83;;;23.17;;
66739;SDS011;53653;52.188;8.602;2024-02-28T06:47:20;77.32;;;23.25;;
66739;SDS011;53653;52.188;8.602;2024-02-28T06:49:46;76.40;;;24.93;;
66739;SDS011;53653;52.188;8.602;2024-02-28T06:52:11;85.43;;;23.90;;
66739;SDS011;53653;52.188;8.602;2024-02-28T06:54:37;71.93;;;22.30;;
66739;SDS011;53653;52.188;8.602;2024-02-28T06:57:02;91.83;;;24.03;;
66739;SDS011;53653;52.188;8.602;2024-02-28T06:59:28;80.90;;;21.40;;
66739;SDS011;53653;52.188;8.602;2024-02-28T07:01:53;83.90;;;23.52;;
66739;SDS011;53653;52.188;8.602;2024-02-28T07:04:19;98.80;;;27.27;;
66739;SDS011;53653;52.188;8.602;2024-02-28T07:06:44;106.60;;;26.33;;
66739;SDS011;53653;52.188;8.602;2024-02-28T07:09:11;96.25;;;24.42;;
66739;SDS011;53653;52.188;8.602;2024-02-28T07:11:37;97.40;;;26.13;;
66739;SDS011;53653;52.188;8.602;2024-02-28T07:14:03;105.50;;;28.63;;
66739;SDS011;53653;52.188;8.602;2024-02-28T07:16:29;107.60;;;29.60;;
66739;SDS011;53653;52.188;8.602;2024-02-28T07:18:54;100.93;;;27.47;;
66739;SDS011;53653;52.188;8.602;2024-02-28T07:21:20;98.53;;;27.60;;
66739;SDS011;53653;52.188;8.602;2024-02-28T07:23:45;117.43;;;26.83;;
66739;SDS011;53653;52.188;8.602;2024-02-28T07:26:17;108.43;;;28.13;;
66739;SDS011;53653;52.188;8.602;2024-02-28T07:28:43;108.10;;;28.02;;
66739;SDS011;53653;52.188;8.602;2024-02-28T07:31:15;101.30;;;25.92;;
66739;SDS011;53653;52.188;8.602;2024-02-28T07:33:41;95.43;;;26.55;;
66739;SDS011;53653;52.188;8.602;2024-02-28T07:36:06;103.93;;;27.27;;
66739;SDS011;53653;52.188;8.602;2024-02-28T07:38:32;111.37;;;30.40;;
66739;SDS011;53653;52.188;8.602;2024-02-28T07:40:57;80.82;;;23.52;;
66739;SDS011;53653;52.188;8.602;2024-02-28T07:43:23;107.10;;;29.13;;
66739;SDS011;53653;52.188;8.602;2024-02-28T07:45:49;100.40;;;27.60;;
66739;SDS011;53653;52.188;8.602;2024-02-28T07:48:14;106.45;;;27.13;;
66739;SDS011;53653;52.188;8.602;2024-02-28T07:50:42;114.68;;;26.60;;
66739;SDS011;53653;52.188;8.602;2024-02-28T07:53:09;106.43;;;27.27;;
66739;SDS011;53653;52.188;8.602;2024-02-28T07:55:34;91.28;;;24.90;;
66739;SDS011;53653;52.188;8.602;2024-02-28T07:58:00;93.47;;;25.47;;
66739;SDS011;53653;52.188;8.602;2024-02-28T08:00:25;94.27;;;26.33;;
66739;SDS011;53653;52.188;8.602;2024-02-28T08:02:51;88.73;;;25.33;;
66739;SDS011;53653;52.188;8.602;2024-02-28T08:05:16;88.37;;;24.43;;
66739;SDS011;53653;52.188;8.602;2024-02-28T08:07:42;88.60;;;25.65;;
66739;SDS011;53653;52.188;8.602;2024-02-28T08:10:08;90.20;;;22.63;;
66739;SDS011;53653;52.188;8.602;2024-02-28T08:12:35;80.97;;;24.90;;
66739;SDS011;53653;52.188;8.602;2024-02-28T08:15:01;90.20;;;24.90;;
66739;SDS011;53653;52.188;8.602;2024-02-28T08:17:27;83.00;;;24.65;;
66739;SDS011;53653;52.188;8.602;2024-02-28T08:19:52;92.20;;;23.87;;
66739;SDS011;53653;52.188;8.602;2024-02-28T08:22:17;85.03;;;23.27;;
66739;SDS011;53653;52.188;8.602;2024-02-28T08:24:43;81.77;;;24.93;;
66739;SDS011;53653;52.188;8.602;2024-02-28T08:27:08;96.78;;;26.50;;
66739;SDS011;53653;52.188;8.602;2024-02-28T08:29:33;90.13;;;26.07;;
66739;SDS011;53653;52.188;8.602;2024-02-28T08:32:00;81.80;;;23.73;;
66739;SDS011;53653;52.188;8.602;2024-02-28T08:34:26;86.30;;;25.70;;
66739;SDS011;53653;52.188;8.602;2024-02-28T08:36:51;89.93;;;24.53;;
66739;SDS011;53653;52.188;8.602;2024-02-28T08:39:17;96.43;;;25.63;;
66739;SDS011;53653;52.188;8.602;2024-02-28T08:41:42;83.10;;;23.50;;
66739;SDS011;53653;52.188;8.602;2024-02-28T08:44:08;84.97;;;27.07;;
66739;SDS011;53653;52.188;8.602;2024-02-28T08:46:33;81.90;;;25.23;;
66739;SDS011;53653;52.188;8.602;2024-02-28T08:48:59;88.35;;;25.10;;
66739;SDS011;53653;52.188;8.602;2024-02-28T08:51:24;82.57;;;24.60;;
66739;SDS011;53653;52.188;8.602;2024-02-28T08:53:49;80.50;;;23.77;;
66739;SDS011;53653;52.188;8.602;2024-02-28T08:56:17;82.80;;;23.13;;
66739;SDS011;53653;52.188;8.602;2024-02-28T08:58:42;105.00;;;28.00;;
66739;SDS011;53653;52.188;8.602;2024-02-28T09:01:12;146.52;;;39.38;;
66739;SDS011;53653;52.188;8.602;2024-02-28T09:03:39;78.43;;;22.05;;
66739;SDS011;53653;52.188;8.602;2024-02-28T09:06:04;82.47;;;25.77;;
66739;SDS011;53653;52.188;8.602;2024-02-28T09:08:30;67.63;;;22.00;;
66739;SDS011;53653;52.188;8.602;2024-02-28T09:10:55;60.50;;;18.25;;
66739;SDS011;53653;52.188;8.602;2024-02-28T09:13:21;80.57;;;25.07;;
66739;SDS011;53653;52.188;8.602;2024-02-28T09:15:46;83.40;;;25.40;;
66739;SDS011;53653;52.188;8.602;2024-02-28T09:18:11;76.87;;;23.37;;
66739;SDS011;53653;52.188;8.602;2024-02-28T09:20:37;78.60;;;23.90;;
66739;SDS011;53653;52.188;8.602;2024-02-28T09:23:02;76.77;;;23.67;;
66739;SDS011;53653;52.188;8.602;2024-02-28T09:25:28;76.63;;;21.77;;
66739;SDS011;53653;52.188;8.602;2024-02-28T09:27:55;71.82;;;23.05;;
66739;SDS011;53653;52.188;8.602;2024-02-28T09:30:22;78.43;;;23.75;;
66739;SDS011;53653;52.188;8.602;2024-02-28T09:32:48;84.75;;;24.85;;
66739;SDS011;53653;52.188;8.602;2024-02-28T09:35:13;68.07;;;22.83;;
66739;SDS011;53653;52.188;8.602;2024-02-28T09:37:39;93.97;;;25.20;;
66739;SDS011;53653;52.188;8.602;2024-02-28T09:40:04;139.47;;;41.77;;
66739;SDS011;53653;52.188;8.602;2024-02-28T09:42:34;153.57;;;43.35;;
66739;SDS011;53653;52.188;8.602;2024-02-28T09:45:00;101.40;;;27.07;;
66739;SDS011;53653;52.188;8.602;2024-02-28T09:47:26;112.30;;;33.67;;
66739;SDS011;53653;52.188;8.602;2024-02-28T09:49:52;132.93;;;37.35;;
66739;SDS011;53653;52.188;8.602;2024-02-28T09:52:19;87.80;;;26.60;;
66739;SDS011;53653;52.188;8.602;2024-02-28T09:54:45;111.63;;;30.63;;
66739;SDS011;53653;52.188;8.602;2024-02-28T09:57:11;102.00;;;31.13;;
66739;SDS011;53653;52.188;8.602;2024-02-28T09:59:36;126.30;;;37.25;;
66739;SDS011;53653;52.188;8.602;2024-02-28T10:02:04;112.45;;;35.28;;
66739;SDS011;53653;52.188;8.602;2024-02-28T10:04:31;83.10;;;22.33;;
66739;SDS011;53653;52.188;8.602;2024-02-28T10:06:59;111.68;;;34.08;;
66739;SDS011;53653;52.188;8.602;2024-02-28T10:09:37;92.40;;;25.70;;
66739;SDS011;53653;52.188;8.602;2024-02-28T10:12:03;85.28;;;23.50;;
66739;SDS011;53653;52.188;8.602;2024-02-28T10:14:28;104.87;;;31.53;;
66739;SDS011;53653;52.188;8.602;2024-02-28T10:16:55;77.87;;;24.17;;
66739;SDS011;53653;52.188;8.602;2024-02-28T10:19:20;88.93;;;23.85;;
66739;SDS011;53653;52.188;8.602;2024-02-28T10:21:46;81.33;;;23.77;;
66739;SDS011;53653;52.188;8.602;2024-02-28T10:24:12;112.25;;;35.63;;
66739;SDS011;53653;52.188;8.602;2024-02-28T10:26:46;174.57;;;53.28;;
66739;SDS011;53653;52.188;8.602;2024-02-28T10:29:20;86.90;;;25.07;;
66739;SDS011;53653;52.188;8.602;2024-02-28T10:31:49;81.75;;;24.30;;
66739;SDS011;53653;52.188;8.602;2024-02-28T10:34:17;95.03;;;24.98;;
66739;SDS011;53653;52.188;8.602;2024-02-28T10:36:46;100.95;;;26.80;;
66739;SDS011;53653;52.188;8.602;2024-02-28T10:39:12;88.57;;;25.73;;
66739;SDS011;53653;52.188;8.602;2024-02-28T10:41:38;128.60;;;39.13;;
66739;SDS011;53653;52.188;8.602;2024-02-28T10:44:04;103.85;;;28.13;;
66739;SDS011;53653;52.188;8.602;2024-02-28T10:46:30;82.83;;;24.70;;
66739;SDS011;53653;52.188;8.602;2024-02-28T10:48:56;79.68;;;22.90;;
66739;SDS011;53653;52.188;8.602;2024-02-28T10:51:25;88.90;;;25.10;;
66739;SDS011;53653;52.188;8.602;2024-02-28T10:54:02;84.22;;;23.40;;
66739;SDS011;53653;52.188;8.602;2024-02-28T10:56:42;73.43;;;20.42;;
66739;SDS011;53653;52.188;8.602;2024-02-28T10:59:09;77.13;;;20.87;;
66739;SDS011;53653;52.188;8.602;2024-02-28T11:01:35;73.97;;;21.77;;
66739;SDS011;53653;52.188;8.602;2024-02-28T11:04:02;66.68;;;18.50;;
66739;SDS011;53653;52.188;8.602;2024-02-28T11:06:28;63.55;;;19.70;;
66739;SDS011;53653;52.188;8.602;2024-02-28T11:08:54;61.57;;;18.50;;
66739;SDS011;53653;52.188;8.602;2024-02-28T11:11:21;80.05;;;23.88;;
66739;SDS011;53653;52.188;8.602;2024-02-28T11:13:57;71.28;;;20.27;;
66739;SDS011;53653;52.188;8.602;2024-02-28T11:16:32;71.07;;;20.07;;
66739;SDS011;53653;52.188;8.602;2024-02-28T11:18:58;74.80;;;22.70;;
66739;SDS011;53653;52.188;8.602;2024-02-28T11:21:25;65.00;;;20.83;;
66739;SDS011;53653;52.188;8.602;2024-02-28T11:23:52;64.65;;;20.33;;
66739;SDS011;53653;52.188;8.602;2024-02-28T11:26:18;58.50;;;16.80;;
66739;SDS011;53653;52.188;8.602;2024-02-28T11:28:43;72.83;;;21.60;;
66739;SDS011;53653;52.188;8.602;2024-02-28T11:31:09;64.87;;;21.00;;
66739;SDS011;53653;52.188;8.602;2024-02-28T11:33:35;47.05;;;14.35;;
66739;SDS011;53653;52.188;8.602;2024-02-28T11:36:01;63.70;;;18.37;;
66739;SDS011;53653;52.188;8.602;2024-02-28T11:38:28;68.43;;;21.77;;
66739;SDS011;53653;52.188;8.602;2024-02-28T11:40:54;61.30;;;18.80;;
66739;SDS011;53653;52.188;8.602;2024-02-28T11:43:20;59.28;;;19.25;;
66739;SDS011;53653;52.188;8.602;2024-02-28T11:45:46;60.93;;;17.40;;
66739;SDS011;53653;52.188;8.602;2024-02-28T11:48:15;68.65;;;19.05;;
66739;SDS011;53653;52.188;8.602;2024-02-28T11:50:41;63.28;;;20.02;;
66739;SDS011;53653;52.188;8.602;2024-02-28T11:53:07;63.80;;;19.23;;
66739;SDS011;53653;52.188;8.602;2024-02-28T11:55:33;60.92;;;19.20;;
66739;SDS011;53653;52.188;8.602;2024-02-28T11:57:59;69.93;;;21.17;;
66739;SDS011;53653;52.188;8.602;2024-02-28T12:00:24;72.03;;;20.80;;
66739;SDS011;53653;52.188;8.602;2024-02-28T12:02:50;64.25;;;19.10;;
66739;SDS011;53653;52.188;8.602;2024-02-28T12:05:16;64.53;;;17.77;;
66739;SDS011;53653;52.188;8.602;2024-02-28T12:07:41;68.47;;;20.67;;
66739;SDS011;53653;52.188;8.602;2024-02-28T12:10:08;69.82;;;19.98;;
66739;SDS011;53653;52.188;8.602;2024-02-28T12:12:34;77.22;;;19.15;;
66739;SDS011;53653;52.188;8.602;2024-02-28T12:15:00;68.30;;;18.47;;
66739;SDS011;53653;52.188;8.602;2024-02-28T12:17:28;76.10;;;21.23;;
66739;SDS011;53653;52.188;8.602;2024-02-28T12:19:54;66.33;;;17.43;;
66739;SDS011;53653;52.188;8.602;2024-02-28T12:22:22;70.93;;;18.92;;
66739;SDS011;53653;52.188;8.602;2024-02-28T12:24:47;53.43;;;13.47;;
66739;SDS011;53653;52.188;8.602;2024-02-28T12:27:13;64.25;;;16.95;;
66739;SDS011;53653;52.188;8.602;2024-02-28T12:29:38;62.10;;;16.43;;
66739;SDS011;53653;52.188;8.602;2024-02-28T12:32:04;53.10;;;16.90;;
66739;SDS011;53653;52.188;8.602;2024-02-28T12:34:29;67.50;;;18.43;;
66739;SDS011;53653;52.188;8.602;2024-02-28T12:36:55;67.65;;;19.50;;
66739;SDS011;53653;52.188;8.602;2024-02-28T12:39:20;69.77;;;18.00;;
66739;SDS011;53653;52.188;8.602;2024-02-28T12:41:45;72.80;;;19.30;;
66739;SDS011;53653;52.188;8.602;2024-02-28T12:44:11;69.07;;;19.70;;
66739;SDS011;53653;52.188;8.602;2024-02-28T12:46:36;66.40;;;19.53;;
66739;SDS011;53653;52.188;8.602;2024-02-28T12:49:02;59.00;;;16.88;;
66739;SDS011;53653;52.188;8.602;2024-02-28T12:51:41;65.32;;;17.50;;
66739;SDS011;53653;52.188;8.602;2024-02-28T12:54:09;68.38;;;18.92;;
66739;SDS011;53653;52.188;8.602;2024-02-28T12:56:35;64.10;;;18.50;;
66739;SDS011;53653;52.188;8.602;2024-02-28T12:59:02;72.35;;;19.38;;
66739;SDS011;53653;52.188;8.602;2024-02-28T13:01:28;66.25;;;18.33;;
66739;SDS011;53653;52.188;8.602;2024-02-28T13:03:54;75.72;;;19.60;;
66739;SDS011;53653;52.188;8.602;2024-02-28T13:06:20;70.75;;;19.42;;
66739;SDS011;53653;52.188;8.602;2024-02-28T13:08:46;51.57;;;14.43;;
66739;SDS011;53653;52.188;8.602;2024-02-28T13:11:17;66.55;;;19.42;;
66739;SDS011;53653;52.188;8.602;2024-02-28T13:13:47;71.75;;;20.88;;
66739;SDS011;53653;52.188;8.602;2024-02-28T13:16:14;74.87;;;18.87;;
66739;SDS011;53653;52.188;8.602;2024-02-28T13:18:40;53.75;;;15.38;;
66739;SDS011;53653;52.188;8.602;2024-02-28T13:21:06;50.63;;;15.40;;
66739;SDS011;53653;52.188;8.602;2024-02-28T13:23:31;63.33;;;17.53;;
66739;SDS011;53653;52.188;8.602;2024-02-28T13:25:57;64.97;;;18.80;;
66739;SDS011;53653;52.188;8.602;2024-02-28T13:28:22;62.33;;;16.23;;
66739;SDS011;53653;52.188;8.602;2024-02-28T13:30:57;72.45;;;19.35;;
66739;SDS011;53653;52.188;8.602;2024-02-28T13:33:24;86.97;;;24.77;;
66739;SDS011;53653;52.188;8.602;2024-02-28T13:35:49;68.33;;;19.77;;
66739;SDS011;53653;52.188;8.602;2024-02-28T13:38:15;65.95;;;20.05;;
66739;SDS011;53653;52.188;8.602;2024-02-28T13:40:40;68.73;;;18.13;;
66739;SDS011;53653;52.188;8.602;2024-02-28T13:43:06;62.60;;;16.58;;
66739;SDS011;53653;52.188;8.602;2024-02-28T13:45:32;61.40;;;16.20;;
66739;SDS011;53653;52.188;8.602;2024-02-28T13:47:58;44.65;;;14.68;;
66739;SDS011;53653;52.188;8.602;2024-02-28T13:50:23;59.43;;;15.77;;
66739;SDS011;53653;52.188;8.602;2024-02-28T13:52:56;74.10;;;19.88;;
66739;SDS011;53653;52.188;8.602;2024-02-28T13:55:22;65.10;;;19.15;;
66739;SDS011;53653;52.188;8.602;2024-02-28T13:57:48;58.07;;;17.97;;
66739;SDS011;53653;52.188;8.602;2024-02-28T14:00:13;58.17;;;18.37;;
66739;SDS011;53653;52.188;8.602;2024-02-28T14:02:39;58.63;;;18.33;;
66739;SDS011;53653;52.188;8.602;2024-02-28T14:05:05;54.43;;;16.60;;
66739;SDS011;53653;52.188;8.602;2024-02-28T14:07:32;61.72;;;19.23;;
66739;SDS011;53653;52.188;8.602;2024-02-28T14:09:58;68.13;;;20.67;;
66739;SDS011;53653;52.188;8.602;2024-02-28T14:12:24;65.37;;;20.23;;
66739;SDS011;53653;52.188;8.602;2024-02-28T14:14:49;62.80;;;19.67;;